createdAt,value
2018-09-28T00:02:13.612Z,54.89
2018-09-28T00:04:41.550Z,53.40
2018-09-28T00:07:09.554Z,50.76
2018-09-28T00:09:37.625Z,51.03
2018-09-28T00:12:05.754Z,52.38
2018-09-28T00:14:33.672Z,51.84
2018-09-28T00:17:01.662Z,51.48
2018-09-28T00:19:29.706Z,51.35
2018-09-28T00:21:57.637Z,51.89
2018-09-28T00:24:25.754Z,53.01
2018-09-28T00:26:53.923Z,51.33
2018-09-28T00:29:22.109Z,51.64
2018-09-28T00:31:50.029Z,52.68
2018-09-28T00:34:18.183Z,52.98
2018-09-28T00:36:46.095Z,53.49
2018-09-28T00:39:14.065Z,54.42
2018-09-28T00:41:42.043Z,54.02
2018-09-28T00:44:10.069Z,55.09
2018-09-28T00:46:37.987Z,53.77
2018-09-28T00:49:06.020Z,53.73
2018-09-28T00:51:33.984Z,54.73
2018-09-28T00:54:01.958Z,52.27
2018-09-28T00:56:29.887Z,52.59
2018-09-28T00:58:58.076Z,54.87
2018-09-28T01:01:26.000Z,52.77
2018-09-28T01:03:53.998Z,52.62
2018-09-28T01:06:21.901Z,54.64
2018-09-28T01:08:49.784Z,54.51
2018-09-28T01:11:17.722Z,55.32
2018-09-28T01:13:45.628Z,54.40
2018-09-28T01:16:13.685Z,54.37
2018-09-28T01:18:41.604Z,56.77
2018-09-28T01:21:09.479Z,55.81
2018-09-28T01:23:37.495Z,55.35
2018-09-28T01:26:05.484Z,56.02
2018-09-28T01:28:33.369Z,59.27
2018-09-28T01:31:01.235Z,57.35
2018-09-28T01:33:29.461Z,55.53
2018-09-28T01:35:57.570Z,56.53
2018-09-28T01:38:25.570Z,56.85
2018-09-28T01:40:53.572Z,57.61
2018-09-28T01:43:21.451Z,58.55
2018-09-28T01:45:49.359Z,57.42
2018-09-28T01:48:17.270Z,58.07
2018-09-28T01:50:45.238Z,60.29
2018-09-28T01:53:13.104Z,58.45
2018-09-28T01:55:41.193Z,59.18
2018-09-28T01:58:09.093Z,60.00
2018-09-28T02:00:37.057Z,61.67
2018-09-28T02:03:05.004Z,63.08
2018-09-28T02:05:32.922Z,63.34
2018-09-28T02:08:00.873Z,63.59
2018-09-28T02:10:28.814Z,65.14
2018-09-28T02:12:56.782Z,63.96
2018-09-28T02:15:24.797Z,64.14
2018-09-28T02:17:52.850Z,64.30
2018-09-28T02:20:20.882Z,67.39
2018-09-28T02:22:48.811Z,66.13
2018-09-28T02:25:17.475Z,64.81
2018-09-28T02:27:45.863Z,65.71
2018-09-28T02:30:14.112Z,66.10
2018-09-28T02:32:42.102Z,66.58
2018-09-28T02:35:11.215Z,67.26
2018-09-28T02:37:39.373Z,66.11
2018-09-28T02:40:07.390Z,64.60
2018-09-28T02:42:35.374Z,64.45
2018-09-28T02:45:03.441Z,65.12
2018-09-28T02:47:32.414Z,66.34
2018-09-28T02:50:02.106Z,63.82
2018-09-28T02:52:30.080Z,64.10
2018-09-28T02:54:58.208Z,63.61
2018-09-28T02:57:26.355Z,63.66
2018-09-28T02:59:54.484Z,64.97
2018-09-28T03:02:22.451Z,63.15
2018-09-28T03:04:50.475Z,63.16
2018-09-28T03:07:18.530Z,63.12
2018-09-28T03:09:46.482Z,62.12
2018-09-28T03:12:14.366Z,61.33
2018-09-28T03:14:42.275Z,62.26
2018-09-28T03:17:10.256Z,61.80
2018-09-28T03:19:38.800Z,61.91
2018-09-28T03:22:06.858Z,62.41
2018-09-28T03:24:34.884Z,62.99
2018-09-28T03:27:02.744Z,62.74
2018-09-28T03:29:30.890Z,64.78
2018-09-28T03:31:59.008Z,62.44
2018-09-28T03:34:27.015Z,62.07
2018-09-28T03:36:54.956Z,65.55
2018-09-28T03:39:22.863Z,62.53
2018-09-28T03:41:50.903Z,61.74
2018-09-28T03:44:18.856Z,63.42
2018-09-28T03:46:46.756Z,62.57
2018-09-28T03:49:14.701Z,61.00
2018-09-28T03:51:42.719Z,61.20
2018-09-28T03:54:11.216Z,60.96
2018-09-28T03:56:39.263Z,60.98
2018-09-28T03:59:07.581Z,59.84
2018-09-28T04:01:35.543Z,59.25
2018-09-28T04:04:03.755Z,61.13
2018-09-28T04:06:31.783Z,60.90
2018-09-28T04:09:00.669Z,62.68
2018-09-28T04:11:28.558Z,61.15
2018-09-28T04:13:56.775Z,60.51
2018-09-28T04:16:24.817Z,60.67
2018-09-28T04:18:52.883Z,58.82
2018-09-28T04:21:21.031Z,60.97
2018-09-28T04:23:49.088Z,59.81
2018-09-28T04:26:17.330Z,59.47
2018-09-28T04:28:45.228Z,58.97
2018-09-28T04:31:13.350Z,59.26
2018-09-28T04:33:42.321Z,60.85
2018-09-28T04:36:10.571Z,59.05
2018-09-28T04:38:38.598Z,59.96
2018-09-28T04:41:06.623Z,57.85
2018-09-28T04:43:35.164Z,58.87
2018-09-28T04:46:03.141Z,58.48
2018-09-28T04:48:31.185Z,57.59
2018-09-28T04:50:59.403Z,56.25
2018-09-28T04:53:27.463Z,55.91
2018-09-28T04:55:55.426Z,56.33
2018-09-28T04:58:23.444Z,58.12
2018-09-28T05:00:51.662Z,59.53
2018-09-28T05:03:19.651Z,61.12
2018-09-28T05:05:48.498Z,60.73
2018-09-28T05:08:16.515Z,60.69
2018-09-28T05:10:44.522Z,61.31
2018-09-28T05:13:12.549Z,60.53
2018-09-28T05:15:40.544Z,59.18
2018-09-28T05:18:09.450Z,58.68
2018-09-28T05:20:37.646Z,59.15
2018-09-28T05:23:05.762Z,58.47
2018-09-28T05:25:33.732Z,58.32
2018-09-28T05:28:01.694Z,57.56
2018-09-28T05:30:29.779Z,59.41
2018-09-28T05:32:57.827Z,61.45
2018-09-28T05:35:26.190Z,58.76
2018-09-28T05:37:54.182Z,59.09
2018-09-28T05:40:22.183Z,57.79
2018-09-28T05:42:50.147Z,57.35
2018-09-28T05:45:18.436Z,55.11
2018-09-28T05:47:46.610Z,56.09
2018-09-28T05:50:16.053Z,56.28
2018-09-28T05:52:44.214Z,57.60
2018-09-28T05:55:12.574Z,56.77
2018-09-28T05:57:40.710Z,57.72
2018-09-28T06:00:14.359Z,58.62
2018-09-28T06:02:47.748Z,58.21
2018-09-28T06:05:21.314Z,57.66
2018-09-28T06:07:49.295Z,57.16
2018-09-28T06:10:17.771Z,57.42
2018-09-28T06:12:45.875Z,56.74
2018-09-28T06:15:14.647Z,56.95
2018-09-28T06:17:42.664Z,56.83
2018-09-28T06:20:13.111Z,55.45
2018-09-28T06:22:41.580Z,55.50
2018-09-28T06:25:10.716Z,54.46
2018-09-28T06:27:39.353Z,53.85
2018-09-28T06:30:11.908Z,53.93
2018-09-28T06:32:42.170Z,53.60
2018-09-28T06:35:12.691Z,53.14
2018-09-28T06:37:44.814Z,52.55
2018-09-28T06:40:13.618Z,52.60
2018-09-28T06:42:45.348Z,51.67
2018-09-28T06:47:54.734Z,49.35
2018-09-28T06:50:24.103Z,49.55
2018-09-28T06:52:52.265Z,47.16
2018-09-28T06:55:20.345Z,46.99
2018-09-28T06:57:48.738Z,46.03
2018-09-28T07:00:16.939Z,46.74
2018-09-28T07:02:44.968Z,44.28
2018-09-28T07:05:13.161Z,43.83
2018-09-28T07:07:41.209Z,43.21
2018-09-28T07:10:09.251Z,42.65
2018-09-28T07:12:37.208Z,42.28
2018-09-28T07:15:05.698Z,41.26
2018-09-28T07:17:34.466Z,41.53
2018-09-28T07:20:02.598Z,40.90
2018-09-28T07:22:31.021Z,39.89
2018-09-28T07:24:59.101Z,40.02
2018-09-28T07:27:27.131Z,39.98
2018-09-28T07:29:55.061Z,40.32
2018-09-28T07:32:23.060Z,39.36
2018-09-28T07:34:52.091Z,39.16
2018-09-28T07:37:20.212Z,38.70
2018-09-28T07:39:48.180Z,38.30
2018-09-28T07:42:16.242Z,37.18
2018-09-28T07:44:44.264Z,36.78
2018-09-28T07:47:12.911Z,36.57
2018-09-28T07:49:40.954Z,36.30
2018-09-28T07:52:09.672Z,34.91
2018-09-28T07:54:37.625Z,34.48
2018-09-28T07:57:05.675Z,34.27
2018-09-28T07:59:34.367Z,35.00
2018-09-28T08:02:02.879Z,34.41
2018-09-28T08:04:30.800Z,32.98
2018-09-28T08:06:58.742Z,33.05
2018-09-28T08:09:28.850Z,32.93
2018-09-28T08:11:56.839Z,33.32
2018-09-28T08:14:24.829Z,32.78
2018-09-28T08:16:52.746Z,32.11
2018-09-28T08:19:20.800Z,31.01
2018-09-28T08:21:48.811Z,31.66
2018-09-28T08:24:17.191Z,31.20
2018-09-28T08:26:45.850Z,29.76
2018-09-28T08:29:14.055Z,29.28
2018-09-28T08:31:42.098Z,30.23
2018-09-28T08:34:10.044Z,29.65
2018-09-28T08:36:38.164Z,29.12
2018-09-28T08:39:08.003Z,29.13
2018-09-28T08:41:35.968Z,29.09
2018-09-28T08:44:04.064Z,29.42
2018-09-28T08:46:32.155Z,29.08
2018-09-28T08:51:55.734Z,28.53
2018-09-28T08:54:35.925Z,26.63
2018-09-28T08:57:06.315Z,27.15
2018-09-28T08:59:34.459Z,26.79
2018-09-28T09:02:16.930Z,27.01
2018-09-28T09:04:45.519Z,26.35
2018-09-28T09:07:20.489Z,26.14
2018-09-28T09:09:52.529Z,26.10
2018-09-28T09:15:07.979Z,26.32
2018-09-28T09:17:44.330Z,26.13
2018-09-28T09:20:25.905Z,25.33
2018-09-28T09:22:56.560Z,25.38
2018-09-28T09:25:25.890Z,24.38
2018-09-28T09:28:18.698Z,23.01
2018-09-28T09:30:50.837Z,22.90
2018-09-28T09:33:22.724Z,23.10
2018-09-28T09:35:52.477Z,22.89
2018-09-28T09:38:32.565Z,20.99
2018-09-28T09:41:07.856Z,19.72
2018-09-28T09:43:36.097Z,18.05
2018-09-28T09:46:06.190Z,17.50
2018-09-28T09:48:40.843Z,17.33
2018-09-28T09:51:09.149Z,17.48
2018-09-28T09:53:43.160Z,17.15
2018-09-28T09:56:16.393Z,15.50
2018-09-28T09:58:47.304Z,13.48
2018-09-28T10:01:20.701Z,13.93
2018-09-28T10:04:01.506Z,14.58
2018-09-28T10:06:29.559Z,14.17
2018-09-28T10:08:58.865Z,14.17
2018-09-28T10:11:55.742Z,13.71
2018-09-28T10:14:24.477Z,13.31
2018-09-28T10:16:55.549Z,13.40
2018-09-28T10:19:24.768Z,14.51
2018-09-28T10:21:55.251Z,15.13
2018-09-28T10:27:09.333Z,15.92
2018-09-28T10:29:51.405Z,16.89
2018-09-28T10:32:26.476Z,16.26
2018-09-28T10:35:02.656Z,16.09
2018-09-28T10:37:39.268Z,17.08
2018-09-28T10:40:07.689Z,17.32
2018-09-28T10:42:37.929Z,16.35
2018-09-28T10:45:10.059Z,17.02
2018-09-28T10:47:38.246Z,17.43
2018-09-28T10:50:09.408Z,17.27
2018-09-28T10:52:39.308Z,18.49
2018-09-28T10:55:14.217Z,15.21
2018-09-28T10:57:42.251Z,16.14
2018-09-28T11:00:15.770Z,16.91
2018-09-28T11:05:38.441Z,15.95
2018-09-28T11:08:06.957Z,15.60
2018-09-28T11:10:37.213Z,15.82
2018-09-28T11:13:08.978Z,15.72
2018-09-28T11:15:38.729Z,16.25
2018-09-28T11:18:08.442Z,15.50
2018-09-28T11:20:40.773Z,15.99
2018-09-28T11:23:21.526Z,15.76
2018-09-28T11:25:50.471Z,15.96
2018-09-28T11:28:20.815Z,15.62
2018-09-28T11:31:09.547Z,15.58
2018-09-28T11:34:07.016Z,15.79
2018-09-28T11:36:38.220Z,15.64
2018-09-28T11:39:09.429Z,15.68
2018-09-28T11:41:37.669Z,15.84
2018-09-28T11:44:08.118Z,15.30
2018-09-28T11:46:39.818Z,15.14
2018-09-28T11:49:15.299Z,15.07
2018-09-28T11:51:50.402Z,14.86
2018-09-28T11:54:24.143Z,14.69
2018-09-28T11:56:54.765Z,14.17
2018-09-28T11:59:30.648Z,14.63
2018-09-28T12:02:00.147Z,14.66
2018-09-28T12:04:33.417Z,15.19
2018-09-28T12:07:01.765Z,14.76
2018-09-28T12:09:31.760Z,14.52
2018-09-28T12:12:00.401Z,13.43
2018-09-28T12:14:29.411Z,13.66
2018-09-28T12:17:00.640Z,13.96
2018-09-28T12:19:29.752Z,13.73
2018-09-28T12:22:01.020Z,13.42
2018-09-28T12:24:29.220Z,13.08
2018-09-28T12:26:58.052Z,12.00
2018-09-28T12:29:31.550Z,12.52
2018-09-28T12:32:04.175Z,12.91
2018-09-28T12:34:35.725Z,12.42
2018-09-28T12:37:04.659Z,13.09
2018-09-28T12:39:33.303Z,12.71
2018-09-28T12:42:15.860Z,12.34
2018-09-28T12:47:28.062Z,12.62
2018-09-28T12:50:07.296Z,12.60
2018-09-28T12:52:35.713Z,12.52
2018-09-28T12:55:13.721Z,12.43
2018-09-28T13:01:00.696Z,12.69
2018-09-28T13:06:29.365Z,11.98
2018-09-28T13:08:59.303Z,12.76
2018-09-28T13:11:28.025Z,12.41
2018-09-28T13:13:59.908Z,12.61
2018-09-28T13:16:27.991Z,12.28
2018-09-28T13:18:55.964Z,12.52
2018-09-28T13:21:24.093Z,11.33
2018-09-28T13:23:52.264Z,11.79
2018-09-28T13:26:20.382Z,11.13
2018-09-28T13:28:48.660Z,11.07
2018-09-28T13:31:16.976Z,10.42
2018-09-28T13:33:45.954Z,10.90
2018-09-28T13:36:15.404Z,10.58
2018-09-28T13:38:44.058Z,11.14
2018-09-28T13:41:12.059Z,11.01
2018-09-28T13:43:40.124Z,11.78
2018-09-28T13:46:08.458Z,10.96
2018-09-28T13:48:37.554Z,10.83
2018-09-28T13:55:14.910Z,11.39
2018-09-28T13:57:42.891Z,11.21
2018-09-28T14:00:11.281Z,11.10
2018-09-28T14:02:39.444Z,11.27
2018-09-28T14:05:07.893Z,11.08
2018-09-28T14:07:35.829Z,11.15
2018-09-28T14:10:04.105Z,11.37
2018-09-28T14:12:32.191Z,11.46
2018-09-28T14:15:00.309Z,11.44
2018-09-28T14:17:28.838Z,11.95
2018-09-28T14:19:57.141Z,11.82
2018-09-28T14:22:25.245Z,12.43
2018-09-28T14:24:53.357Z,10.82
2018-09-28T14:27:21.279Z,11.65
2018-09-28T14:29:49.267Z,10.72
2018-09-28T14:32:17.383Z,10.17
2018-09-28T14:34:47.091Z,10.58
2018-09-28T14:37:15.242Z,10.48
2018-09-28T14:39:43.750Z,11.30
2018-09-28T14:42:12.510Z,10.79
2018-09-28T14:44:40.730Z,11.05
2018-09-28T14:47:08.997Z,10.85
2018-09-28T14:49:36.929Z,10.55
2018-09-28T14:52:04.830Z,11.56
2018-09-28T14:54:32.866Z,10.90
2018-09-28T14:57:00.909Z,10.84
2018-09-28T14:59:28.849Z,11.73
2018-09-28T15:01:56.897Z,11.63
2018-09-28T15:04:25.599Z,11.49
2018-09-28T15:06:53.577Z,12.36
2018-09-28T15:09:21.676Z,13.47
2018-09-28T15:11:49.667Z,12.29
2018-09-28T15:14:17.660Z,12.63
2018-09-28T15:16:45.994Z,12.37
2018-09-28T15:19:14.287Z,13.11
2018-09-28T15:21:42.366Z,12.85
2018-09-28T15:24:10.907Z,14.71
2018-09-28T15:26:39.044Z,13.09
2018-09-28T15:29:07.045Z,13.29
2018-09-28T15:31:35.126Z,13.59
2018-09-28T15:34:03.062Z,15.83
2018-09-28T15:36:31.088Z,13.98
2018-09-28T15:38:59.854Z,13.93
2018-09-28T15:41:31.978Z,14.28
2018-09-28T15:44:01.586Z,14.31
2018-09-28T15:46:31.551Z,14.26
2018-09-28T15:49:00.397Z,14.27
2018-09-28T15:51:29.769Z,14.49
2018-09-28T15:53:59.736Z,15.23
2018-09-28T15:56:29.651Z,15.51
2018-09-28T15:58:59.614Z,15.59
2018-09-28T16:01:29.941Z,15.62
2018-09-28T16:03:58.700Z,17.83
2018-09-28T16:06:29.297Z,15.86
2018-09-28T16:08:57.549Z,17.04
2018-09-28T16:11:27.790Z,16.67
2018-09-28T16:14:00.572Z,17.33
2018-09-28T16:16:31.926Z,17.16
2018-09-28T16:19:02.758Z,16.63
2018-09-28T16:21:35.113Z,16.85
2018-09-28T16:24:05.395Z,16.83
2018-09-28T16:26:35.652Z,17.29
2018-09-28T16:29:04.310Z,17.33
2018-09-28T16:31:32.235Z,18.24
2018-09-28T16:34:00.064Z,18.99
2018-09-28T16:36:28.382Z,18.90
2018-09-28T16:38:56.466Z,19.17
2018-09-28T16:41:24.462Z,19.41
2018-09-28T16:43:52.445Z,19.46
2018-09-28T16:46:20.476Z,20.37
2018-09-28T16:48:49.507Z,19.60
2018-09-28T16:51:17.454Z,20.04
2018-09-28T16:53:45.379Z,20.07
2018-09-28T16:56:13.344Z,20.27
2018-09-28T16:58:41.256Z,19.86
2018-09-28T17:01:09.482Z,20.32
2018-09-28T17:03:38.309Z,19.91
2018-09-28T17:06:06.196Z,20.98
2018-09-28T17:08:34.191Z,20.77
2018-09-28T17:11:02.182Z,21.39
2018-09-28T17:13:30.135Z,21.44
2018-09-28T17:15:58.136Z,21.68
2018-09-28T17:18:26.140Z,21.74
2018-09-28T17:20:54.274Z,22.34
2018-09-28T17:23:22.253Z,23.48
2018-09-28T17:25:50.267Z,23.19
2018-09-28T17:28:18.181Z,23.46
2018-09-28T17:30:46.136Z,22.96
2018-09-28T17:33:14.118Z,23.64
2018-09-28T17:35:41.986Z,23.87
2018-09-28T17:38:10.143Z,23.50
2018-09-28T17:40:38.495Z,23.42
2018-09-28T17:43:06.688Z,24.18
2018-09-28T17:45:36.127Z,23.90
2018-09-28T17:48:09.035Z,23.75
2018-09-28T17:50:36.979Z,24.31
2018-09-28T17:53:05.030Z,24.76
2018-09-28T17:55:34.084Z,24.89
2018-09-28T17:58:03.092Z,25.12
2018-09-28T18:00:31.188Z,25.38
2018-09-28T18:02:59.053Z,25.86
2018-09-28T18:05:26.966Z,25.72
2018-09-28T18:07:55.213Z,25.59
2018-09-28T18:10:24.893Z,25.93
2018-09-28T18:12:56.367Z,26.03
2018-09-28T18:15:24.330Z,25.87
2018-09-28T18:17:54.222Z,25.68
2018-09-28T18:20:22.238Z,25.88
2018-09-28T18:22:50.150Z,25.29
2018-09-28T18:25:18.315Z,26.52
2018-09-28T18:27:47.263Z,26.33
2018-09-28T18:30:16.454Z,26.76
2018-09-28T18:32:44.576Z,26.88
2018-09-28T18:35:13.523Z,26.36
2018-09-28T18:37:41.847Z,26.85
2018-09-28T18:40:09.905Z,27.11
2018-09-28T18:42:37.798Z,26.16
2018-09-28T18:45:05.938Z,27.04
2018-09-28T18:47:34.917Z,27.04
2018-09-28T18:50:03.598Z,27.71
2018-09-28T18:52:31.867Z,26.84
2018-09-28T18:55:02.980Z,27.32
2018-09-28T18:57:31.752Z,27.42
2018-09-28T19:00:00.455Z,27.42
2018-09-28T19:02:29.196Z,27.55
2018-09-28T19:04:57.667Z,27.06
2018-09-28T19:07:25.773Z,27.25
2018-09-28T19:09:54.578Z,27.45
2018-09-28T19:12:23.062Z,26.75
2018-09-28T19:14:51.501Z,27.16
2018-09-28T19:17:19.708Z,27.78
2018-09-28T19:19:47.989Z,28.39
2018-09-28T19:22:22.996Z,28.45
2018-09-28T19:24:51.348Z,28.56
2018-09-28T19:27:19.426Z,28.14
2018-09-28T19:29:48.167Z,28.43
2018-09-28T19:32:16.171Z,28.97
2018-09-28T19:34:44.147Z,29.23
2018-09-28T19:37:12.484Z,30.34
2018-09-28T19:39:40.590Z,30.04
2018-09-28T19:42:08.621Z,30.53
2018-09-28T19:44:36.626Z,30.36
2018-09-28T19:47:04.595Z,30.70
2018-09-28T19:49:32.890Z,30.80
2018-09-28T19:52:00.920Z,30.91
2018-09-28T19:54:29.578Z,31.10
2018-09-28T19:56:57.673Z,31.13
2018-09-28T19:59:25.696Z,30.60
2018-09-28T20:01:54.664Z,30.73
2018-09-28T20:04:23.535Z,31.01
2018-09-28T20:06:51.536Z,31.27
2018-09-28T20:09:19.451Z,31.96
2018-09-28T20:11:47.461Z,31.76
2018-09-28T20:14:15.427Z,30.83
2018-09-28T20:16:43.354Z,30.62
2018-09-28T20:19:17.744Z,30.71
2018-09-28T20:21:46.308Z,31.44
2018-09-28T20:24:14.668Z,31.28
2018-09-28T20:26:42.710Z,31.18
2018-09-28T20:29:10.664Z,31.75
2018-09-28T20:31:38.906Z,31.43
2018-09-28T20:34:07.159Z,31.62
2018-09-28T20:36:35.306Z,31.76
2018-09-28T20:39:04.129Z,31.77
2018-09-28T20:41:32.367Z,31.70
2018-09-28T20:44:00.462Z,31.18
2018-09-28T20:46:28.414Z,31.32
2018-09-28T20:48:58.203Z,31.96
2018-09-28T20:51:26.098Z,31.94
2018-09-28T20:53:55.128Z,31.63
2018-09-28T20:56:24.862Z,32.56
2018-09-28T20:58:52.937Z,32.33
2018-09-28T21:01:20.996Z,31.85
2018-09-28T21:03:49.309Z,31.53
2018-09-28T21:06:17.565Z,31.98
2018-09-28T21:08:45.895Z,32.06
2018-09-28T21:11:13.964Z,32.75
2018-09-28T21:13:42.058Z,32.72
2018-09-28T21:16:10.070Z,32.18
2018-09-28T21:18:38.074Z,32.22
2018-09-28T21:21:06.362Z,32.69
2018-09-28T21:23:34.792Z,32.92
2018-09-28T21:26:03.299Z,32.54
2018-09-28T21:28:31.430Z,32.02
2018-09-28T21:30:59.398Z,32.03
2018-09-28T21:33:27.302Z,31.51
2018-09-28T21:35:55.450Z,31.11
2018-09-28T21:38:23.362Z,31.13
2018-09-28T21:40:52.070Z,32.00
2018-09-28T21:43:20.487Z,32.45
2018-09-28T21:45:48.760Z,31.67
2018-09-28T21:48:16.900Z,32.41
2018-09-28T21:50:45.020Z,32.46
2018-09-28T21:53:14.879Z,33.75
2018-09-28T21:55:42.949Z,33.40
2018-09-28T21:58:10.979Z,33.69
2018-09-28T22:00:39.529Z,33.90
2018-09-28T22:03:08.418Z,34.59
2018-09-28T22:05:36.663Z,34.94
2018-09-28T22:08:05.092Z,34.53
2018-09-28T22:10:33.799Z,35.02
2018-09-28T22:13:02.132Z,35.48
2018-09-28T22:15:30.222Z,35.57
2018-09-28T22:17:58.205Z,36.30
2018-09-28T22:20:26.575Z,36.84
2018-09-28T22:22:54.507Z,36.84
2018-09-28T22:25:22.609Z,36.75
2018-09-28T22:27:50.734Z,37.37
2018-09-28T22:30:19.209Z,37.84
2018-09-28T22:32:47.142Z,36.76
2018-09-28T22:35:15.686Z,37.55
2018-09-28T22:37:43.689Z,36.66
2018-09-28T22:40:11.805Z,37.23
2018-09-28T22:42:39.870Z,37.53
2018-09-28T22:45:07.806Z,37.60
2018-09-28T22:47:35.954Z,36.86
2018-09-28T22:50:04.544Z,37.26
2018-09-28T22:52:33.548Z,37.04
2018-09-28T22:55:01.884Z,37.53
2018-09-28T22:57:29.765Z,37.01
2018-09-28T22:59:57.712Z,37.29
2018-09-28T23:02:25.583Z,38.01
2018-09-28T23:04:53.786Z,37.91
2018-09-28T23:07:21.765Z,38.18
2018-09-28T23:09:49.611Z,37.52
2018-09-28T23:12:17.601Z,37.98
2018-09-28T23:14:45.623Z,37.95
2018-09-28T23:17:13.574Z,37.40
2018-09-28T23:19:41.546Z,38.04
2018-09-28T23:22:09.482Z,38.78
2018-09-28T23:24:37.499Z,38.01
2018-09-28T23:27:05.627Z,39.04
2018-09-28T23:29:33.586Z,38.15
2018-09-28T23:32:01.614Z,39.32
2018-09-28T23:34:29.547Z,38.51
2018-09-28T23:36:57.487Z,39.23
2018-09-28T23:39:25.516Z,40.92
2018-09-28T23:41:53.483Z,39.93
2018-09-28T23:44:21.614Z,39.06
2018-09-28T23:46:49.571Z,37.11
2018-09-28T23:49:17.557Z,39.59
2018-09-28T23:51:45.566Z,42.83
2018-09-28T23:54:13.579Z,42.27
2018-09-28T23:56:41.466Z,42.52
2018-09-28T23:59:09.505Z,44.46
